Canaan Lake, New York
Current Conditions -  °F | °C
As of 3:56 AM on Friday 24 Oct 2014 (Local Time) from KISP Reporting Station
Overcast Overcast  
Wind Chill: 51°   Ceiling: 3800
Heat Index: 51°   Visibility: 10mi
Dew Point: 46°   Wind: 16mph
Humidity: 83%   Direction: 320°NW
Pressure: 29.71"   Gusts: 21mph
Location:  40.7718°N, 72.9949°W
Report Text: KISP 240756Z AUTO 32014G18KT 10SM OVC038 11/08 A2971 RMK AO2 SLP061 T01060078
Loading
Personal Weather Stations






























Interactive Weather Map
Tropical Storm Tracking
New forecast layout! Learn more

10-Day Weather Forecast

Advertisements
Track Severe Weather on mobile